createdAt,value
2022-10-20T00:00:29.544Z,7.30
2022-10-20T00:03:30.647Z,6.50
2022-10-20T00:06:16.664Z,6.20
2022-10-20T00:09:01.337Z,6.70
2022-10-20T00:11:31.811Z,6.80
2022-10-20T00:16:58.718Z,7.10
2022-10-20T00:19:39.678Z,6.30
2022-10-20T00:22:11.458Z,6.30
2022-10-20T00:24:41.205Z,5.70
2022-10-20T00:27:15.824Z,6.40
2022-10-20T00:29:48.223Z,6.60
2022-10-20T00:32:31.683Z,6.20
2022-10-20T00:35:09.290Z,6.50
2022-10-20T00:37:39.703Z,6.30
2022-10-20T00:40:18.635Z,6.90
2022-10-20T00:43:01.313Z,6.50
2022-10-20T00:45:35.608Z,6.20
2022-10-20T00:48:18.497Z,6.10
2022-10-20T00:50:51.804Z,6.20
2022-10-20T00:53:44.504Z,6.70
2022-10-20T00:56:14.053Z,5.60
2022-10-20T00:58:48.389Z,6.60
2022-10-20T01:01:25.826Z,6.00
2022-10-20T01:03:55.711Z,5.80
2022-10-20T01:06:29.059Z,6.30
2022-10-20T01:09:09.772Z,6.70
2022-10-20T01:11:46.485Z,6.10
2022-10-20T01:15:16.154Z,6.20
2022-10-20T01:18:07.916Z,6.30
2022-10-20T01:20:46.644Z,6.70
2022-10-20T01:23:44.669Z,6.20
2022-10-20T01:26:32.598Z,6.50
2022-10-20T01:29:12.441Z,6.30
2022-10-20T01:31:45.227Z,6.00
2022-10-20T01:34:34.886Z,6.00
2022-10-20T01:37:34.083Z,5.60
2022-10-20T01:40:34.351Z,6.20
2022-10-20T01:43:12.267Z,6.60
2022-10-20T01:45:55.764Z,6.10
2022-10-20T01:48:43.121Z,5.60
2022-10-20T01:51:13.085Z,5.80
2022-10-20T01:53:42.925Z,5.90
2022-10-20T01:56:31.440Z,7.10
2022-10-20T01:59:19.522Z,5.60
2022-10-20T02:02:24.903Z,6.50
2022-10-20T02:05:32.108Z,7.10
2022-10-20T02:08:27.152Z,6.70
2022-10-20T02:11:09.417Z,7.30
2022-10-20T02:13:41.884Z,7.00
2022-10-20T02:16:24.899Z,7.50
2022-10-20T02:19:04.535Z,7.20
2022-10-20T02:21:39.998Z,7.30
2022-10-20T02:24:20.875Z,6.70
2022-10-20T02:26:59.697Z,7.10
2022-10-20T02:29:35.554Z,7.70
2022-10-20T02:32:11.112Z,7.50
2022-10-20T02:34:42.730Z,6.80
2022-10-20T02:39:50.350Z,6.30
2022-10-20T02:42:19.410Z,7.90
2022-10-20T02:44:59.085Z,6.80
2022-10-20T02:47:28.864Z,6.40
2022-10-20T02:50:01.386Z,6.40
2022-10-20T02:52:39.177Z,6.90
2022-10-20T02:55:09.343Z,7.80
2022-10-20T02:57:38.875Z,8.40
2022-10-20T03:00:09.398Z,7.80
2022-10-20T03:02:52.715Z,7.10
2022-10-20T03:05:22.735Z,6.90
2022-10-20T03:07:52.323Z,7.40
2022-10-20T03:10:23.994Z,7.10
2022-10-20T03:12:53.626Z,7.10
2022-10-20T03:15:22.700Z,7.00
2022-10-20T03:17:51.894Z,7.50
2022-10-20T03:20:24.379Z,7.50
2022-10-20T03:22:53.718Z,8.30
2022-10-20T03:25:25.999Z,8.10
2022-10-20T03:28:04.922Z,7.40
2022-10-20T03:30:42.694Z,7.90
2022-10-20T03:33:12.013Z,8.20
2022-10-20T03:35:41.985Z,7.70
2022-10-20T03:38:11.178Z,8.60
2022-10-20T03:40:41.369Z,7.80
2022-10-20T03:43:21.083Z,7.80
2022-10-20T03:45:51.909Z,8.20
2022-10-20T03:48:21.631Z,9.00
2022-10-20T03:50:58.154Z,7.60
2022-10-20T03:53:32.578Z,8.30
2022-10-20T03:56:10.140Z,8.60
2022-10-20T03:58:41.563Z,8.30
2022-10-20T04:01:35.993Z,8.30
2022-10-20T04:04:05.120Z,8.10
2022-10-20T04:06:40.556Z,8.90
2022-10-20T04:09:22.568Z,8.80
2022-10-20T04:11:56.669Z,8.60
2022-10-20T04:14:26.133Z,8.80
2022-10-20T04:16:55.118Z,9.00
2022-10-20T04:19:24.829Z,9.30
2022-10-20T04:22:06.400Z,9.50
2022-10-20T04:24:36.300Z,8.90
2022-10-20T04:27:08.563Z,10.00
2022-10-20T04:29:38.306Z,9.80
2022-10-20T04:32:20.859Z,10.80
2022-10-20T04:34:53.672Z,9.20
2022-10-20T04:37:26.517Z,10.10
2022-10-20T04:40:05.774Z,10.20
2022-10-20T04:42:55.279Z,10.90
2022-10-20T04:45:30.281Z,12.00
2022-10-20T04:48:08.345Z,11.00
2022-10-20T04:51:28.867Z,10.40
2022-10-20T04:54:07.425Z,11.30
2022-10-20T04:56:41.102Z,11.30
2022-10-20T04:59:13.514Z,11.80
2022-10-20T05:01:56.962Z,11.20
2022-10-20T05:04:35.423Z,11.80
2022-10-20T05:07:05.684Z,12.10
2022-10-20T05:09:49.037Z,12.60
2022-10-20T05:12:29.751Z,12.40
2022-10-20T05:15:00.164Z,12.40
2022-10-20T05:17:43.589Z,12.40
2022-10-20T05:20:14.018Z,11.20
2022-10-20T05:23:01.033Z,13.20
2022-10-20T05:25:36.393Z,12.50
2022-10-20T05:28:07.078Z,12.20
2022-10-20T05:33:22.945Z,13.30
2022-10-20T05:35:54.467Z,14.90
2022-10-20T05:38:37.448Z,15.90
2022-10-20T05:41:16.948Z,14.10
2022-10-20T05:44:04.807Z,13.70
2022-10-20T05:46:40.755Z,13.30
2022-10-20T05:49:36.140Z,12.60
2022-10-20T05:52:06.137Z,12.90
2022-10-20T05:54:41.884Z,12.50
2022-10-20T05:57:20.087Z,12.70
2022-10-20T05:59:59.016Z,12.70
2022-10-20T06:02:29.519Z,13.80
2022-10-20T06:05:03.787Z,15.30
2022-10-20T06:07:36.566Z,16.30
2022-10-20T06:10:14.804Z,18.60
2022-10-20T06:12:44.926Z,16.80
2022-10-20T06:15:16.357Z,17.00
2022-10-20T06:17:57.844Z,17.30
2022-10-20T06:20:29.453Z,18.10
2022-10-20T06:23:02.237Z,18.70
2022-10-20T06:25:33.175Z,18.60
2022-10-20T06:28:06.830Z,17.70
2022-10-20T06:30:37.001Z,18.50
2022-10-20T06:33:22.592Z,18.40
2022-10-20T06:35:52.191Z,19.80
2022-10-20T06:38:23.068Z,19.20
2022-10-20T06:40:53.338Z,18.30
2022-10-20T06:43:23.367Z,17.80
2022-10-20T06:46:04.339Z,19.40
2022-10-20T06:48:47.600Z,18.40
2022-10-20T06:51:30.606Z,19.00
2022-10-20T06:54:03.351Z,20.20
2022-10-20T06:56:38.151Z,22.00
2022-10-20T06:59:10.164Z,19.10
2022-10-20T07:01:48.401Z,20.20
2022-10-20T07:04:18.150Z,19.80
2022-10-20T07:06:56.856Z,17.70
2022-10-20T07:09:27.933Z,19.30
2022-10-20T07:11:57.040Z,20.70
2022-10-20T07:14:39.775Z,19.30
2022-10-20T07:17:10.788Z,19.10
2022-10-20T07:19:39.889Z,18.30
2022-10-20T07:22:11.439Z,20.50
2022-10-20T07:24:58.529Z,21.10
2022-10-20T07:27:27.764Z,19.80
2022-10-20T07:29:57.268Z,19.00
2022-10-20T07:32:26.625Z,19.70
2022-10-20T07:34:58.617Z,18.90
2022-10-20T07:37:27.918Z,19.50
2022-10-20T07:39:57.382Z,18.10
2022-10-20T07:42:26.593Z,17.60
2022-10-20T07:45:00.424Z,16.60
2022-10-20T07:47:38.175Z,18.50
2022-10-20T07:50:10.721Z,18.40
2022-10-20T07:52:40.902Z,18.10
2022-10-20T07:55:23.907Z,19.20
2022-10-20T07:58:10.465Z,19.70
2022-10-20T08:03:10.394Z,19.90
2022-10-20T08:05:39.303Z,19.70
2022-10-20T08:08:17.372Z,19.10
2022-10-20T08:10:48.934Z,18.40
2022-10-20T08:13:18.336Z,19.20
2022-10-20T08:15:49.643Z,18.80
2022-10-20T08:18:26.679Z,21.10
2022-10-20T08:21:07.047Z,20.20
2022-10-20T08:23:39.900Z,20.00
2022-10-20T08:26:11.958Z,18.00
2022-10-20T08:28:47.547Z,18.10
2022-10-20T08:31:17.292Z,17.90
2022-10-20T08:33:51.420Z,18.00
2022-10-20T08:36:21.986Z,17.60
2022-10-20T08:39:03.570Z,19.60
2022-10-20T08:44:42.199Z,15.60
2022-10-20T08:47:33.937Z,17.00
2022-10-20T08:50:10.009Z,16.40
2022-10-20T08:52:44.721Z,16.50
2022-10-20T08:55:27.057Z,15.30
2022-10-20T08:58:15.703Z,15.40
2022-10-20T09:00:47.768Z,14.30
2022-10-20T09:03:30.485Z,16.90
2022-10-20T09:06:10.304Z,17.00
2022-10-20T09:08:47.114Z,16.50
2022-10-20T09:11:39.318Z,14.90
2022-10-20T09:14:14.011Z,14.30
2022-10-20T09:17:01.230Z,16.10
2022-10-20T09:19:33.696Z,16.20
2022-10-20T09:22:08.050Z,14.80
2022-10-20T09:24:39.229Z,14.80
2022-10-20T09:27:41.109Z,14.70
2022-10-20T09:30:21.708Z,15.40
2022-10-20T09:32:51.310Z,14.80
2022-10-20T09:35:34.538Z,14.50
2022-10-20T09:38:39.492Z,12.90
2022-10-20T09:41:29.818Z,12.90
2022-10-20T09:44:09.610Z,11.90
2022-10-20T09:46:44.949Z,12.50
2022-10-20T09:49:34.556Z,10.60
2022-10-20T09:52:16.982Z,10.30
2022-10-20T09:55:01.856Z,10.10
2022-10-20T09:57:56.440Z,8.60
2022-10-20T10:03:23.529Z,9.60
2022-10-20T10:06:01.463Z,9.20
2022-10-20T10:08:48.089Z,8.00
2022-10-20T10:11:25.250Z,8.00
2022-10-20T10:13:55.782Z,8.20
2022-10-20T10:16:44.847Z,7.20
2022-10-20T10:19:21.716Z,7.80
2022-10-20T10:22:24.024Z,7.20
2022-10-20T10:24:56.214Z,6.50
2022-10-20T10:27:33.705Z,6.20
2022-10-20T10:30:31.316Z,5.20
2022-10-20T10:33:20.987Z,5.10
2022-10-20T10:35:55.543Z,4.60
2022-10-20T10:38:32.126Z,4.80
2022-10-20T10:41:21.679Z,3.60
2022-10-20T10:44:24.861Z,3.10
2022-10-20T10:47:24.095Z,3.80
2022-10-20T10:50:12.503Z,3.20
2022-10-20T10:53:25.324Z,3.00
2022-10-20T10:56:32.041Z,2.40
2022-10-20T10:59:42.578Z,1.70
2022-10-20T11:02:37.192Z,1.90
2022-10-20T11:05:40.323Z,1.40
2022-10-20T11:08:52.398Z,1.70
2022-10-20T11:11:39.778Z,2.00
2022-10-20T11:14:28.738Z,2.30
2022-10-20T11:17:48.284Z,1.30
2022-10-20T11:21:04.926Z,1.80
2022-10-20T11:23:49.080Z,1.60
2022-10-20T11:26:55.103Z,2.40
2022-10-20T11:30:18.514Z,3.00
2022-10-20T11:33:21.539Z,2.90
2022-10-20T11:36:01.965Z,3.30
2022-10-20T11:38:42.568Z,2.90
2022-10-20T11:44:57.721Z,2.70
2022-10-20T11:47:53.231Z,2.40
2022-10-20T11:50:27.038Z,2.10
2022-10-20T11:53:47.533Z,2.20
2022-10-20T11:56:49.085Z,2.10
2022-10-20T11:59:59.265Z,1.40
2022-10-20T12:02:55.067Z,1.90
2022-10-20T12:05:35.037Z,2.40
2022-10-20T12:08:28.972Z,1.50
2022-10-20T12:11:26.872Z,1.80
2022-10-20T12:17:56.710Z,2.20
2022-10-20T12:20:25.606Z,2.30
2022-10-20T12:23:24.184Z,1.80
2022-10-20T12:25:54.222Z,1.80
2022-10-20T12:28:23.853Z,1.70
